createdAt,value
2018-03-06T00:01:51.395Z,2.80
2018-03-06T00:04:21.439Z,2.80
2018-03-06T00:06:50.702Z,2.80
2018-03-06T00:09:19.987Z,2.80
2018-03-06T00:11:49.278Z,2.80
2018-03-06T00:14:19.348Z,2.70
2018-03-06T00:16:48.621Z,2.70
2018-03-06T00:19:18.236Z,2.70
2018-03-06T00:21:47.509Z,2.60
2018-03-06T00:24:16.769Z,2.60
2018-03-06T00:26:46.060Z,2.50
2018-03-06T00:29:15.369Z,2.60
2018-03-06T00:31:44.646Z,2.50
2018-03-06T00:34:13.921Z,2.60
2018-03-06T00:36:44.071Z,2.60
2018-03-06T00:39:13.366Z,2.50
2018-03-06T00:41:42.635Z,2.50
2018-03-06T00:44:11.927Z,2.50
2018-03-06T00:46:41.214Z,2.50
2018-03-06T00:49:10.501Z,2.50
2018-03-06T00:51:40.527Z,2.40
2018-03-06T00:54:10.611Z,2.30
2018-03-06T00:56:39.913Z,2.30
2018-03-06T00:59:09.177Z,2.30
2018-03-06T01:01:39.215Z,2.30
2018-03-06T01:04:09.260Z,2.20
2018-03-06T01:06:38.553Z,2.20
2018-03-06T01:09:08.619Z,2.20
2018-03-06T01:11:37.908Z,2.20
2018-03-06T01:14:07.946Z,2.20
2018-03-06T01:16:37.223Z,2.20
2018-03-06T01:19:06.469Z,2.20
2018-03-06T01:21:35.752Z,2.20
2018-03-06T01:24:05.014Z,2.10
2018-03-06T01:26:34.304Z,2.00
2018-03-06T01:29:03.575Z,1.90
2018-03-06T01:31:32.886Z,1.80
2018-03-06T01:34:02.137Z,1.70
2018-03-06T01:36:31.353Z,1.70
2018-03-06T01:39:00.641Z,1.70
2018-03-06T01:41:29.900Z,1.80
2018-03-06T01:43:59.237Z,1.80
2018-03-06T01:46:28.495Z,1.80
2018-03-06T01:48:57.770Z,1.90
2018-03-06T01:51:27.039Z,1.80
2018-03-06T01:53:56.323Z,1.70
2018-03-06T01:56:25.666Z,1.70
2018-03-06T01:58:54.975Z,1.70
2018-03-06T02:01:24.265Z,1.70
2018-03-06T02:03:54.286Z,1.60
2018-03-06T02:06:24.858Z,1.50
2018-03-06T02:08:54.119Z,1.50
2018-03-06T02:11:23.402Z,1.50
2018-03-06T02:13:52.671Z,1.40
2018-03-06T02:16:22.301Z,1.50
2018-03-06T02:18:51.582Z,1.50
2018-03-06T02:21:20.840Z,1.50
2018-03-06T02:23:50.160Z,1.50
2018-03-06T02:26:19.444Z,1.50
2018-03-06T02:28:48.710Z,1.40
2018-03-06T02:31:18.011Z,1.40
2018-03-06T02:33:47.609Z,1.40
2018-03-06T02:36:16.871Z,1.40
2018-03-06T02:38:47.210Z,1.40
2018-03-06T02:41:17.254Z,1.40
2018-03-06T02:43:46.539Z,1.30
2018-03-06T02:46:15.821Z,1.40
2018-03-06T02:48:45.092Z,1.40
2018-03-06T02:51:14.687Z,1.30
2018-03-06T02:53:44.731Z,1.30
2018-03-06T02:56:14.853Z,1.20
2018-03-06T02:58:44.896Z,1.20
2018-03-06T03:01:14.201Z,1.10
2018-03-06T03:03:44.244Z,1.10
2018-03-06T03:06:17.139Z,1.00
2018-03-06T03:08:46.408Z,1.10
2018-03-06T03:11:15.696Z,1.10
2018-03-06T03:13:44.980Z,1.10
2018-03-06T03:16:14.258Z,1.10
2018-03-06T03:18:43.566Z,1.00
2018-03-06T03:21:12.832Z,0.90
2018-03-06T03:23:42.138Z,0.90
2018-03-06T03:26:11.456Z,0.90
2018-03-06T03:28:40.750Z,0.90
2018-03-06T03:31:10.061Z,0.90
2018-03-06T03:33:39.367Z,0.80
2018-03-06T03:36:08.644Z,0.90
2018-03-06T03:38:37.925Z,0.80
2018-03-06T03:41:07.198Z,0.80
2018-03-06T03:43:37.503Z,0.80
2018-03-06T03:46:06.778Z,0.70
2018-03-06T03:48:36.039Z,0.80
2018-03-06T03:51:05.382Z,0.80
2018-03-06T03:53:34.674Z,0.80
2018-03-06T03:56:03.959Z,0.80
2018-03-06T03:58:33.227Z,0.80
2018-03-06T04:01:02.506Z,0.80
2018-03-06T04:03:32.566Z,0.80
2018-03-06T04:06:01.874Z,0.70
2018-03-06T04:08:31.537Z,0.70
2018-03-06T04:11:00.875Z,0.70
2018-03-06T04:13:30.150Z,0.70
2018-03-06T04:15:59.409Z,0.70
2018-03-06T04:18:28.704Z,0.70
2018-03-06T04:20:57.994Z,0.70
2018-03-06T04:23:27.536Z,0.70
2018-03-06T04:25:56.825Z,0.70
2018-03-06T04:28:26.103Z,0.70
2018-03-06T04:30:55.379Z,0.70
2018-03-06T04:33:25.728Z,0.80
2018-03-06T04:35:55.767Z,0.70
2018-03-06T04:38:25.821Z,0.70
2018-03-06T04:40:55.062Z,0.70
2018-03-06T04:43:24.342Z,0.70
2018-03-06T04:45:53.599Z,0.60
2018-03-06T04:48:22.926Z,0.50
2018-03-06T04:50:52.958Z,0.50
2018-03-06T04:53:23.407Z,0.50
2018-03-06T04:55:53.454Z,0.50
2018-03-06T04:58:22.728Z,0.40
2018-03-06T05:00:52.022Z,0.50
2018-03-06T05:03:21.347Z,0.40
2018-03-06T05:05:50.867Z,0.40
2018-03-06T05:08:20.143Z,0.40
2018-03-06T05:10:49.418Z,0.40
2018-03-06T05:13:18.842Z,0.30
2018-03-06T05:15:48.458Z,0.30
2018-03-06T05:18:17.726Z,0.30
2018-03-06T05:20:47.006Z,0.40
2018-03-06T05:23:16.283Z,0.40
2018-03-06T05:25:45.562Z,0.30
2018-03-06T05:28:14.854Z,0.30
2018-03-06T05:30:51.254Z,0.30
2018-03-06T05:33:20.522Z,0.30
2018-03-06T05:35:49.799Z,0.30
2018-03-06T05:38:19.881Z,0.30
2018-03-06T05:40:49.469Z,0.20
2018-03-06T05:43:18.778Z,0.20
2018-03-06T05:45:48.002Z,0.30
2018-03-06T05:48:17.269Z,0.30
2018-03-06T05:50:46.562Z,0.30
2018-03-06T05:53:15.854Z,0.20
2018-03-06T05:55:45.151Z,0.20
2018-03-06T05:58:15.873Z,0.20
2018-03-06T06:00:45.711Z,0.10
2018-03-06T06:03:14.998Z,0.10
2018-03-06T06:05:44.287Z,0.10
2018-03-06T06:08:13.575Z,0.10
2018-03-06T06:10:42.832Z,0.10
2018-03-06T06:13:12.120Z,0.10
2018-03-06T06:15:41.417Z,0.10
2018-03-06T06:18:10.695Z,0.10
2018-03-06T06:20:39.996Z,0.20
2018-03-06T06:23:09.278Z,0.20
2018-03-06T06:25:38.539Z,0.20
2018-03-06T06:28:07.817Z,0.20
2018-03-06T06:30:37.856Z,0.30
2018-03-06T06:33:07.874Z,0.40
2018-03-06T06:35:37.261Z,0.30
2018-03-06T06:38:06.551Z,0.40
2018-03-06T06:40:35.896Z,0.40
2018-03-06T06:43:05.145Z,0.50
2018-03-06T06:45:34.470Z,0.60
2018-03-06T06:48:03.834Z,0.70
2018-03-06T06:50:33.088Z,0.80
2018-03-06T06:53:02.381Z,0.90
2018-03-06T06:55:32.450Z,1.10
2018-03-06T06:58:02.462Z,1.10
2018-03-06T07:00:32.987Z,1.30
2018-03-06T07:03:02.247Z,1.30
2018-03-06T07:05:31.500Z,1.40
2018-03-06T07:08:01.621Z,1.60
2018-03-06T07:10:31.163Z,1.60
2018-03-06T07:13:00.452Z,1.70
2018-03-06T07:15:29.728Z,1.70
2018-03-06T07:17:58.985Z,1.90
2018-03-06T07:20:28.994Z,2.10
2018-03-06T07:22:58.262Z,2.10
2018-03-06T07:25:27.527Z,2.30
2018-03-06T07:27:57.122Z,2.40
2018-03-06T07:30:26.374Z,2.50
2018-03-06T07:32:55.640Z,2.60
2018-03-06T07:35:25.298Z,2.70
2018-03-06T07:37:54.573Z,2.70
2018-03-06T07:40:23.806Z,2.80
2018-03-06T07:42:54.086Z,3.00
2018-03-06T07:45:23.400Z,3.10
2018-03-06T07:47:52.619Z,3.40
2018-03-06T07:50:21.895Z,3.50
2018-03-06T07:52:51.931Z,3.80
2018-03-06T07:55:22.260Z,3.90
2018-03-06T07:57:52.284Z,4.10
2018-03-06T08:00:22.385Z,4.30
2018-03-06T08:02:51.667Z,4.20
2018-03-06T08:05:20.930Z,4.30
2018-03-06T08:07:50.271Z,4.50
2018-03-06T08:10:20.335Z,4.90
2018-03-06T08:12:49.623Z,4.90
2018-03-06T08:15:18.885Z,5.00
2018-03-06T08:17:48.224Z,4.90
2018-03-06T08:20:17.437Z,4.80
2018-03-06T08:22:47.016Z,4.70
2018-03-06T08:25:16.880Z,4.80
2018-03-06T08:27:46.936Z,5.10
2018-03-06T08:30:16.270Z,5.00
2018-03-06T08:32:45.507Z,5.20
2018-03-06T08:35:14.803Z,5.20
2018-03-06T08:37:44.808Z,5.10
2018-03-06T08:40:14.129Z,5.20
2018-03-06T08:42:43.367Z,5.30
2018-03-06T08:45:12.663Z,5.50
2018-03-06T08:47:41.983Z,5.30
2018-03-06T08:50:11.259Z,5.30
2018-03-06T08:52:40.540Z,5.20
2018-03-06T08:55:09.854Z,5.30
2018-03-06T08:57:39.106Z,5.40
2018-03-06T09:00:08.384Z,5.40
2018-03-06T09:02:38.402Z,5.50
2018-03-06T09:05:08.495Z,5.70
2018-03-06T09:07:37.784Z,5.70
2018-03-06T09:10:07.101Z,5.80
2018-03-06T09:12:36.380Z,5.80
2018-03-06T09:15:06.428Z,6.20
2018-03-06T09:17:35.690Z,6.10
2018-03-06T09:20:05.335Z,6.30
2018-03-06T09:22:35.363Z,6.30
2018-03-06T09:25:05.415Z,6.50
2018-03-06T09:27:34.721Z,6.50
2018-03-06T09:30:06.683Z,6.50
2018-03-06T09:32:37.186Z,6.70
2018-03-06T09:35:06.436Z,6.70
2018-03-06T09:37:35.746Z,6.90
2018-03-06T09:40:05.058Z,7.00
2018-03-06T09:42:34.304Z,7.30
2018-03-06T09:45:03.604Z,7.60
2018-03-06T09:47:32.879Z,7.70
2018-03-06T09:50:02.216Z,7.60
2018-03-06T09:52:31.452Z,7.50
2018-03-06T09:55:00.756Z,7.60
2018-03-06T09:57:30.091Z,7.30
2018-03-06T09:59:59.390Z,7.50
2018-03-06T10:02:28.663Z,7.70
2018-03-06T10:04:58.732Z,7.90
2018-03-06T10:07:27.993Z,7.80
2018-03-06T10:09:57.296Z,8.20
2018-03-06T10:12:26.571Z,8.40
2018-03-06T10:15:08.271Z,8.30
2018-03-06T10:17:37.581Z,8.40
2018-03-06T10:20:06.978Z,8.60
2018-03-06T10:22:36.991Z,8.40
2018-03-06T10:25:07.348Z,8.50
2018-03-06T10:27:36.608Z,9.00
2018-03-06T10:30:07.947Z,9.40
2018-03-06T10:32:37.237Z,9.10
2018-03-06T10:35:06.548Z,8.90
2018-03-06T10:37:35.847Z,9.10
2018-03-06T10:40:06.039Z,9.00
2018-03-06T10:42:35.391Z,9.20
2018-03-06T10:45:05.103Z,9.50
2018-03-06T10:47:36.650Z,9.60
2018-03-06T10:50:05.953Z,9.50
2018-03-06T10:52:40.897Z,9.60
2018-03-06T10:58:04.703Z,9.40
2018-03-06T11:00:39.732Z,9.20
2018-03-06T11:03:09.003Z,9.10
2018-03-06T11:08:22.422Z,9.60
2018-03-06T11:10:52.493Z,10.30
2018-03-06T11:13:22.502Z,9.90
2018-03-06T11:15:52.158Z,9.80
2018-03-06T11:18:22.180Z,9.70
2018-03-06T11:20:53.119Z,9.60
2018-03-06T11:23:23.401Z,9.80
2018-03-06T11:25:53.139Z,9.80
2018-03-06T11:28:22.453Z,9.90
2018-03-06T11:30:51.740Z,9.60
2018-03-06T11:33:21.002Z,9.40
2018-03-06T11:35:50.440Z,9.30
2018-03-06T11:38:19.792Z,9.50
2018-03-06T11:40:49.123Z,9.50
2018-03-06T11:43:18.452Z,9.70
2018-03-06T11:45:48.800Z,9.80
2018-03-06T11:48:18.144Z,9.80
2018-03-06T11:50:47.420Z,10.20
2018-03-06T11:53:16.719Z,10.10
2018-03-06T11:55:46.172Z,9.70
2018-03-06T11:58:16.310Z,9.50
2018-03-06T12:00:45.555Z,9.50
2018-03-06T12:03:14.868Z,9.70
2018-03-06T12:05:46.119Z,9.80
2018-03-06T12:08:15.480Z,10.00
2018-03-06T12:10:44.726Z,9.80
2018-03-06T12:13:14.019Z,9.80
2018-03-06T12:16:03.020Z,9.80
2018-03-06T12:18:33.534Z,9.60
2018-03-06T12:21:02.788Z,9.50
2018-03-06T12:23:32.051Z,9.30
2018-03-06T12:26:01.424Z,9.10
2018-03-06T12:28:30.744Z,9.10
2018-03-06T12:31:00.023Z,9.10
2018-03-06T12:33:29.328Z,9.30
2018-03-06T12:35:58.595Z,9.40
2018-03-06T12:38:27.879Z,9.80
2018-03-06T12:40:57.160Z,9.90
2018-03-06T12:43:26.456Z,10.00
2018-03-06T12:45:56.498Z,10.50
2018-03-06T12:48:26.248Z,10.50
2018-03-06T12:50:55.548Z,10.80
2018-03-06T12:53:24.907Z,10.70
2018-03-06T12:55:54.192Z,10.60
2018-03-06T12:58:23.535Z,10.60
2018-03-06T13:00:52.847Z,10.70
2018-03-06T13:03:22.380Z,10.80
2018-03-06T13:05:52.412Z,10.80
2018-03-06T13:08:21.703Z,10.80
2018-03-06T13:10:50.995Z,10.70
2018-03-06T13:13:20.255Z,10.80
2018-03-06T13:15:50.322Z,10.90
2018-03-06T13:18:19.641Z,10.90
2018-03-06T13:20:48.941Z,10.90
2018-03-06T13:23:18.252Z,10.70
2018-03-06T13:25:47.520Z,10.60
2018-03-06T13:28:16.827Z,10.30
2018-03-06T13:30:46.103Z,10.00
2018-03-06T13:33:15.381Z,10.10
2018-03-06T13:35:44.692Z,10.10
2018-03-06T13:38:13.959Z,9.90
2018-03-06T13:40:43.558Z,9.70
2018-03-06T13:43:12.811Z,9.80
2018-03-06T13:45:42.097Z,10.10
2018-03-06T13:48:11.404Z,10.50
2018-03-06T13:50:40.708Z,10.50
2018-03-06T13:53:10.374Z,10.50
2018-03-06T13:55:40.443Z,10.50
2018-03-06T13:58:09.745Z,10.50
2018-03-06T14:00:39.065Z,10.30
2018-03-06T14:03:08.331Z,10.20
2018-03-06T14:05:37.704Z,10.40
2018-03-06T14:08:06.980Z,10.30
2018-03-06T14:10:37.294Z,10.50
2018-03-06T14:13:06.582Z,10.50
2018-03-06T14:15:35.838Z,10.50
2018-03-06T14:18:05.154Z,10.80
2018-03-06T14:20:34.458Z,10.50
2018-03-06T14:23:03.727Z,10.40
2018-03-06T14:25:32.997Z,10.40
2018-03-06T14:28:02.610Z,10.40
2018-03-06T14:30:32.632Z,10.60
2018-03-06T14:33:02.700Z,10.50
2018-03-06T14:35:31.978Z,10.50
2018-03-06T14:38:01.293Z,10.50
2018-03-06T14:40:30.565Z,10.60
2018-03-06T14:43:00.081Z,10.70
2018-03-06T14:45:29.382Z,10.70
2018-03-06T14:47:58.687Z,10.70
2018-03-06T14:50:27.970Z,10.60
2018-03-06T14:52:57.282Z,10.70
2018-03-06T14:55:26.647Z,10.70
2018-03-06T14:57:55.937Z,10.60
2018-03-06T15:00:25.273Z,10.60
2018-03-06T15:02:54.558Z,10.30
2018-03-06T15:05:23.896Z,10.20
2018-03-06T15:07:53.183Z,10.20
2018-03-06T15:10:22.442Z,10.20
2018-03-06T15:12:52.510Z,10.40
2018-03-06T15:15:21.826Z,10.30
2018-03-06T15:17:51.117Z,10.40
2018-03-06T15:20:20.412Z,10.10
2018-03-06T15:22:49.698Z,10.10
2018-03-06T15:25:19.113Z,10.10
2018-03-06T15:27:48.396Z,10.10
2018-03-06T15:30:17.654Z,10.40
2018-03-06T15:32:47.782Z,10.30
2018-03-06T15:35:17.390Z,10.30
2018-03-06T15:37:46.702Z,10.20
2018-03-06T15:40:16.001Z,10.10
2018-03-06T15:42:45.290Z,10.00
2018-03-06T15:45:14.562Z,10.10
2018-03-06T15:47:44.666Z,10.00
2018-03-06T15:50:13.962Z,10.00
2018-03-06T15:52:43.235Z,10.00
2018-03-06T15:55:12.892Z,10.00
2018-03-06T15:57:42.170Z,10.20
2018-03-06T16:00:11.450Z,10.30
2018-03-06T16:02:40.750Z,10.30
2018-03-06T16:05:10.022Z,10.10
2018-03-06T16:07:39.332Z,9.90
2018-03-06T16:10:08.706Z,9.80
2018-03-06T16:12:38.003Z,9.70
2018-03-06T16:15:07.306Z,9.70
2018-03-06T16:17:36.614Z,9.60
2018-03-06T16:20:05.912Z,9.60
2018-03-06T16:22:35.182Z,9.50
2018-03-06T16:25:04.439Z,9.50
2018-03-06T16:27:33.734Z,9.40
2018-03-06T16:30:03.016Z,9.40
2018-03-06T16:32:33.068Z,9.30
2018-03-06T16:35:02.336Z,9.20
2018-03-06T16:37:31.627Z,9.30
2018-03-06T16:40:00.925Z,9.30
2018-03-06T16:42:30.325Z,9.20
2018-03-06T16:44:59.594Z,9.10
2018-03-06T16:47:29.228Z,9.10
2018-03-06T16:49:58.470Z,9.00
2018-03-06T16:52:27.732Z,8.90
2018-03-06T16:54:57.037Z,8.80
2018-03-06T16:57:26.300Z,8.70
2018-03-06T16:59:55.594Z,8.70
2018-03-06T17:02:24.867Z,8.60
2018-03-06T17:04:54.211Z,8.60
2018-03-06T17:07:23.447Z,8.50
2018-03-06T17:09:52.774Z,8.40
2018-03-06T17:12:22.060Z,8.40
2018-03-06T17:14:51.343Z,8.20
2018-03-06T17:17:20.577Z,8.20
2018-03-06T17:19:49.854Z,8.10
2018-03-06T17:22:19.119Z,8.00
2018-03-06T17:24:48.431Z,8.00
2018-03-06T17:27:17.680Z,7.90
2018-03-06T17:29:46.975Z,7.80
2018-03-06T17:32:16.235Z,7.80
2018-03-06T17:34:47.527Z,7.80
2018-03-06T17:37:16.791Z,7.80
2018-03-06T17:39:46.415Z,7.70
2018-03-06T17:42:15.678Z,7.60
2018-03-06T17:44:44.931Z,7.50
2018-03-06T17:47:14.235Z,7.40
2018-03-06T17:49:43.884Z,7.40
2018-03-06T17:52:13.898Z,7.20
2018-03-06T17:54:43.962Z,7.10
2018-03-06T17:57:13.335Z,7.10
2018-03-06T17:59:43.018Z,7.10
2018-03-06T18:02:12.309Z,7.10
2018-03-06T18:04:42.640Z,7.00
2018-03-06T18:07:12.019Z,7.00
2018-03-06T18:09:41.395Z,6.90
2018-03-06T18:12:10.949Z,6.90
2018-03-06T18:14:40.208Z,6.90
2018-03-06T18:17:09.829Z,6.90
2018-03-06T18:19:39.143Z,6.80
2018-03-06T18:22:08.481Z,6.80
2018-03-06T18:24:37.869Z,6.70
2018-03-06T18:27:07.166Z,6.70
2018-03-06T18:29:36.461Z,6.70
2018-03-06T18:32:05.767Z,6.60
2018-03-06T18:34:35.067Z,6.60
2018-03-06T18:37:04.327Z,6.60
2018-03-06T18:39:34.091Z,6.60
2018-03-06T18:42:03.419Z,6.50
2018-03-06T18:44:32.822Z,6.50
2018-03-06T18:47:02.139Z,6.50
2018-03-06T18:49:31.423Z,6.50
2018-03-06T18:52:01.161Z,6.50
2018-03-06T18:54:38.586Z,6.50
2018-03-06T18:57:08.153Z,6.50
2018-03-06T18:59:37.435Z,6.50
2018-03-06T19:02:24.332Z,6.50
2018-03-06T19:05:11.260Z,6.50
2018-03-06T19:07:40.599Z,6.50
2018-03-06T19:10:11.853Z,6.60
2018-03-06T19:12:42.316Z,6.60
2018-03-06T19:15:11.611Z,6.60
2018-03-06T19:17:41.012Z,6.70
2018-03-06T19:20:11.166Z,6.70
2018-03-06T19:22:41.557Z,6.70
2018-03-06T19:25:10.827Z,6.70
2018-03-06T19:27:40.233Z,6.80
2018-03-06T19:30:09.718Z,6.90
2018-03-06T19:32:39.319Z,6.90
2018-03-06T19:35:08.727Z,6.90
2018-03-06T19:37:38.012Z,6.90
2018-03-06T19:40:07.422Z,7.00
2018-03-06T19:42:36.807Z,6.90
2018-03-06T19:45:06.098Z,6.90
2018-03-06T19:47:35.520Z,7.00
2018-03-06T19:50:05.651Z,6.90
2018-03-06T19:52:35.818Z,7.00
2018-03-06T19:55:05.127Z,7.00
2018-03-06T19:57:34.459Z,7.00
2018-03-06T20:00:04.188Z,7.00
2018-03-06T20:02:38.523Z,7.00
2018-03-06T20:05:08.300Z,7.00
2018-03-06T20:07:37.639Z,7.10
2018-03-06T20:10:06.990Z,7.10
2018-03-06T20:12:36.320Z,7.10
2018-03-06T20:15:11.071Z,7.10
2018-03-06T20:17:40.421Z,7.10
2018-03-06T20:20:09.717Z,7.00
2018-03-06T20:22:42.394Z,7.00
2018-03-06T20:25:18.053Z,7.00
2018-03-06T20:27:47.375Z,7.00
2018-03-06T20:30:22.038Z,7.00
2018-03-06T20:32:57.196Z,6.90
2018-03-06T20:35:26.582Z,7.00
2018-03-06T20:37:55.861Z,6.90
2018-03-06T20:40:30.704Z,6.90
2018-03-06T20:43:01.008Z,7.00
2018-03-06T20:45:35.891Z,6.90
2018-03-06T20:48:05.922Z,6.90
2018-03-06T20:50:37.640Z,6.80
2018-03-06T20:53:12.358Z,7.00
2018-03-06T20:55:41.946Z,6.90
2018-03-06T20:58:11.238Z,6.80
2018-03-06T21:00:40.529Z,6.80
2018-03-06T21:03:10.100Z,6.80
2018-03-06T21:05:39.384Z,6.80
2018-03-06T21:08:08.652Z,6.90
2018-03-06T21:10:37.951Z,6.90
2018-03-06T21:13:07.212Z,6.80
2018-03-06T21:15:36.476Z,6.80
2018-03-06T21:18:05.799Z,6.70
2018-03-06T21:20:35.106Z,6.70
2018-03-06T21:23:04.362Z,6.70
2018-03-06T21:25:33.695Z,6.70
2018-03-06T21:28:02.954Z,6.70
2018-03-06T21:30:32.231Z,6.70
2018-03-06T21:33:01.593Z,6.60
2018-03-06T21:35:30.870Z,6.70
2018-03-06T21:38:00.175Z,6.80
2018-03-06T21:40:29.464Z,6.70
2018-03-06T21:42:58.740Z,6.60
2018-03-06T21:45:28.101Z,6.60
2018-03-06T21:47:58.145Z,6.50
2018-03-06T21:50:27.513Z,6.40
2018-03-06T21:52:56.899Z,6.50
2018-03-06T21:55:26.183Z,6.60
2018-03-06T21:57:56.436Z,6.50
2018-03-06T22:00:25.738Z,6.50
2018-03-06T22:02:54.991Z,6.50
2018-03-06T22:05:24.537Z,6.50
2018-03-06T22:07:53.795Z,6.60
2018-03-06T22:10:23.106Z,6.50
2018-03-06T22:12:52.411Z,6.50
2018-03-06T22:15:21.663Z,6.60
2018-03-06T22:17:50.944Z,6.60
2018-03-06T22:20:20.209Z,6.60
2018-03-06T22:22:49.497Z,6.50
2018-03-06T22:25:19.679Z,6.50
2018-03-06T22:27:48.978Z,6.50
2018-03-06T22:30:19.035Z,6.60
2018-03-06T22:32:48.319Z,6.60
2018-03-06T22:35:18.464Z,6.60
2018-03-06T22:37:47.773Z,6.60
2018-03-06T22:40:17.822Z,6.60
2018-03-06T22:42:47.093Z,6.60
2018-03-06T22:45:17.244Z,6.60
2018-03-06T22:47:47.318Z,6.60
2018-03-06T22:50:17.005Z,6.60
2018-03-06T22:52:47.028Z,6.70
2018-03-06T22:55:16.337Z,6.60
2018-03-06T22:57:46.657Z,6.70
2018-03-06T23:00:15.912Z,6.70
2018-03-06T23:02:45.216Z,6.80
2018-03-06T23:05:14.780Z,6.80
2018-03-06T23:07:44.078Z,6.70
2018-03-06T23:10:13.336Z,6.80
2018-03-06T23:13:02.047Z,6.80
2018-03-06T23:15:31.290Z,6.70
2018-03-06T23:18:00.867Z,6.80
2018-03-06T23:20:30.141Z,6.80
2018-03-06T23:23:00.480Z,6.80
2018-03-06T23:25:30.520Z,6.80
2018-03-06T23:27:59.798Z,6.80
2018-03-06T23:30:29.094Z,6.80
2018-03-06T23:32:58.396Z,6.80
2018-03-06T23:35:27.727Z,6.80
2018-03-06T23:37:57.035Z,6.80
2018-03-06T23:40:26.351Z,6.80
2018-03-06T23:42:55.664Z,6.80
2018-03-06T23:45:24.940Z,6.80
2018-03-06T23:47:54.235Z,6.70
2018-03-06T23:50:23.486Z,6.70
2018-03-06T23:52:54.835Z,6.70
2018-03-06T23:55:24.087Z,6.80
2018-03-06T23:57:54.157Z,6.80
